createdAt,value
2017-08-25T00:02:20.417Z,83.00
2017-08-25T00:04:48.154Z,83.00
2017-08-25T00:07:15.886Z,83.00
2017-08-25T00:09:43.511Z,83.00
2017-08-25T00:12:11.281Z,83.00
2017-08-25T00:14:38.927Z,83.00
2017-08-25T00:17:06.570Z,83.00
2017-08-25T00:19:34.318Z,83.10
2017-08-25T00:22:01.943Z,83.50
2017-08-25T00:24:29.607Z,83.80
2017-08-25T00:26:57.355Z,83.80
2017-08-25T00:29:25.004Z,83.70
2017-08-25T00:31:52.747Z,83.60
2017-08-25T00:34:20.494Z,83.50
2017-08-25T00:36:48.241Z,83.40
2017-08-25T00:39:15.988Z,82.80
2017-08-25T00:41:43.690Z,83.10
2017-08-25T00:44:11.362Z,83.10
2017-08-25T00:46:39.013Z,82.90
2017-08-25T00:49:06.702Z,82.80
2017-08-25T00:51:34.369Z,82.60
2017-08-25T00:54:02.064Z,82.10
2017-08-25T00:56:29.812Z,82.30
2017-08-25T00:58:57.559Z,82.20
2017-08-25T01:01:25.203Z,82.10
2017-08-25T01:03:52.949Z,81.70
2017-08-25T01:06:20.658Z,81.80
2017-08-25T01:08:48.343Z,82.10
2017-08-25T01:11:16.045Z,82.30
2017-08-25T01:13:43.838Z,82.80
2017-08-25T01:16:11.584Z,82.20
2017-08-25T01:18:39.334Z,82.20
2017-08-25T01:21:07.009Z,82.70
2017-08-25T01:23:34.828Z,83.90
2017-08-25T01:26:02.576Z,83.90
2017-08-25T01:28:30.322Z,83.20
2017-08-25T01:30:58.026Z,82.90
2017-08-25T01:33:25.786Z,82.80
2017-08-25T01:35:53.564Z,82.30
2017-08-25T01:38:21.315Z,82.50
2017-08-25T01:40:49.262Z,83.80
2017-08-25T01:43:17.013Z,84.60
2017-08-25T01:45:44.718Z,84.50
2017-08-25T01:48:12.561Z,84.30
2017-08-25T01:50:40.353Z,84.60
2017-08-25T01:53:08.069Z,84.80
2017-08-25T01:55:35.814Z,83.80
2017-08-25T01:58:03.598Z,83.40
2017-08-25T02:00:31.310Z,83.10
2017-08-25T02:02:59.486Z,83.30
2017-08-25T02:05:27.176Z,83.20
2017-08-25T02:07:54.894Z,83.30
2017-08-25T02:10:22.621Z,83.50
2017-08-25T02:12:50.286Z,83.30
2017-08-25T02:15:18.033Z,83.70
2017-08-25T02:17:45.881Z,84.30
2017-08-25T02:20:13.731Z,84.40
2017-08-25T02:22:41.479Z,84.40
2017-08-25T02:25:09.336Z,84.30
2017-08-25T02:27:37.078Z,84.50
2017-08-25T02:30:04.826Z,84.40
2017-08-25T02:32:32.534Z,84.60
2017-08-25T02:35:00.217Z,84.60
2017-08-25T02:37:27.965Z,84.10
2017-08-25T02:39:55.712Z,83.50
2017-08-25T02:42:23.357Z,83.70
2017-08-25T02:44:51.002Z,83.50
2017-08-25T02:47:18.751Z,83.30
2017-08-25T02:49:46.391Z,83.30
2017-08-25T02:52:14.036Z,83.60
2017-08-25T02:54:41.785Z,83.60
2017-08-25T02:57:09.432Z,83.70
2017-08-25T02:59:37.076Z,83.90
2017-08-25T03:02:04.825Z,83.90
2017-08-25T03:04:32.572Z,84.40
2017-08-25T03:07:00.215Z,84.40
2017-08-25T03:09:27.906Z,84.60
2017-08-25T03:11:55.609Z,84.90
2017-08-25T03:14:23.362Z,85.20
2017-08-25T03:16:51.289Z,85.50
2017-08-25T03:19:18.926Z,86.10
2017-08-25T03:21:46.554Z,86.30
2017-08-25T03:24:14.241Z,86.00
2017-08-25T03:26:41.885Z,85.70
2017-08-25T03:29:09.522Z,85.70
2017-08-25T03:31:37.366Z,85.50
2017-08-25T03:34:05.028Z,85.50
2017-08-25T03:36:32.674Z,85.10
2017-08-25T03:39:00.434Z,85.20
2017-08-25T03:41:28.167Z,85.10
2017-08-25T03:43:55.803Z,84.90
2017-08-25T03:46:23.560Z,85.10
2017-08-25T03:48:51.205Z,85.20
2017-08-25T03:51:18.849Z,85.10
2017-08-25T03:53:46.595Z,84.80
2017-08-25T03:56:14.239Z,84.50
2017-08-25T03:58:41.987Z,84.60
2017-08-25T04:01:09.738Z,84.70
2017-08-25T04:03:37.382Z,84.60
2017-08-25T04:06:05.025Z,84.70
2017-08-25T04:08:32.714Z,84.70
2017-08-25T04:11:00.355Z,84.70
2017-08-25T04:13:27.989Z,84.40
2017-08-25T04:15:55.755Z,84.20
2017-08-25T04:18:23.390Z,84.30
2017-08-25T04:20:51.101Z,84.00
2017-08-25T04:23:18.798Z,83.80
2017-08-25T04:25:46.492Z,83.70
2017-08-25T04:28:14.240Z,83.50
2017-08-25T04:30:42.088Z,83.40
2017-08-25T04:33:09.737Z,83.30
2017-08-25T04:35:37.381Z,83.10
2017-08-25T04:38:05.230Z,82.90
2017-08-25T04:40:32.914Z,83.20
2017-08-25T04:43:00.623Z,83.50
2017-08-25T04:45:28.341Z,84.10
2017-08-25T04:47:56.014Z,84.50
2017-08-25T04:50:23.781Z,84.30
2017-08-25T04:52:51.509Z,84.00
2017-08-25T04:55:19.290Z,84.00
2017-08-25T04:57:46.917Z,84.10
2017-08-25T05:00:14.649Z,84.10
2017-08-25T05:02:42.283Z,84.20
2017-08-25T05:05:09.918Z,83.90
2017-08-25T05:07:37.602Z,83.70
2017-08-25T05:10:05.332Z,83.30
2017-08-25T05:12:33.079Z,82.60
2017-08-25T05:15:00.863Z,82.10
2017-08-25T05:17:28.544Z,81.60
2017-08-25T05:19:56.220Z,80.90
2017-08-25T05:22:24.068Z,80.80
2017-08-25T05:24:51.712Z,80.40
2017-08-25T05:27:19.370Z,80.10
2017-08-25T05:29:47.206Z,79.80
2017-08-25T05:32:14.953Z,79.90
2017-08-25T05:34:42.602Z,78.80
2017-08-25T05:37:10.347Z,78.30
2017-08-25T05:39:38.095Z,78.10
2017-08-25T05:42:05.731Z,78.20
2017-08-25T05:44:33.488Z,77.60
2017-08-25T05:47:01.158Z,77.40
2017-08-25T05:49:28.879Z,77.30
2017-08-25T05:51:56.625Z,77.80
2017-08-25T05:54:24.271Z,77.30
2017-08-25T05:56:52.024Z,76.90
2017-08-25T05:59:19.738Z,75.90
2017-08-25T06:01:47.410Z,75.30
2017-08-25T06:04:15.041Z,75.30
2017-08-25T06:06:42.718Z,75.50
2017-08-25T06:09:10.447Z,75.30
2017-08-25T06:11:38.093Z,74.40
2017-08-25T06:14:05.841Z,74.90
2017-08-25T06:16:33.485Z,74.00
2017-08-25T06:19:01.131Z,74.40
2017-08-25T06:21:28.981Z,73.50
2017-08-25T06:23:56.624Z,73.00
2017-08-25T06:26:24.269Z,73.10
2017-08-25T06:28:51.942Z,72.90
2017-08-25T06:31:19.576Z,72.60
2017-08-25T06:33:47.210Z,73.00
2017-08-25T06:36:15.004Z,72.60
2017-08-25T06:38:42.698Z,72.50
2017-08-25T06:41:10.342Z,72.60
2017-08-25T06:43:38.034Z,71.80
2017-08-25T06:46:05.738Z,72.50
2017-08-25T06:48:33.365Z,72.60
2017-08-25T06:51:01.233Z,72.40
2017-08-25T06:53:28.856Z,73.00
2017-08-25T06:55:56.482Z,72.10
2017-08-25T06:58:24.269Z,71.10
2017-08-25T07:00:51.914Z,72.70
2017-08-25T07:03:19.660Z,70.50
2017-08-25T07:05:47.342Z,70.10
2017-08-25T07:08:15.053Z,70.20
2017-08-25T07:10:42.696Z,70.20
2017-08-25T07:13:10.551Z,70.40
2017-08-25T07:15:38.194Z,70.20
2017-08-25T07:18:05.841Z,69.90
2017-08-25T07:20:33.688Z,69.60
2017-08-25T07:23:01.339Z,69.60
2017-08-25T07:25:29.081Z,67.00
2017-08-25T07:27:56.828Z,68.30
2017-08-25T07:30:24.472Z,67.80
2017-08-25T07:32:52.117Z,69.20
2017-08-25T07:35:19.834Z,68.30
2017-08-25T07:37:47.510Z,68.30
2017-08-25T07:40:15.257Z,68.00
2017-08-25T07:42:42.949Z,66.80
2017-08-25T07:45:10.650Z,66.10
2017-08-25T07:47:38.295Z,66.00
2017-08-25T07:50:06.044Z,66.00
2017-08-25T07:52:33.687Z,66.60
2017-08-25T07:55:01.436Z,66.80
2017-08-25T07:57:29.182Z,66.90
2017-08-25T07:59:56.930Z,67.10
2017-08-25T08:02:24.562Z,66.60
2017-08-25T08:04:52.526Z,67.00
2017-08-25T08:07:20.170Z,65.90
2017-08-25T08:09:47.918Z,67.10
2017-08-25T08:12:15.665Z,65.30
2017-08-25T08:14:43.309Z,66.40
2017-08-25T08:17:10.948Z,64.90
2017-08-25T08:19:38.704Z,65.40
2017-08-25T08:22:06.350Z,65.00
2017-08-25T08:24:33.994Z,64.80
2017-08-25T08:27:01.777Z,64.10
2017-08-25T08:29:29.489Z,63.70
2017-08-25T08:31:57.235Z,63.70
2017-08-25T08:34:25.084Z,63.90
2017-08-25T08:36:52.728Z,64.30
2017-08-25T08:39:20.373Z,64.80
2017-08-25T08:41:48.122Z,63.80
2017-08-25T08:44:15.766Z,63.80
2017-08-25T08:46:43.409Z,62.90
2017-08-25T08:49:11.158Z,62.60
2017-08-25T08:51:38.805Z,62.30
2017-08-25T08:54:06.437Z,62.90
2017-08-25T08:56:34.153Z,62.00
2017-08-25T08:59:01.842Z,61.90
2017-08-25T09:01:29.462Z,60.60
2017-08-25T09:03:57.234Z,59.90
2017-08-25T09:06:30.689Z,60.80
2017-08-25T09:08:58.463Z,59.80
2017-08-25T09:11:26.107Z,60.10
2017-08-25T09:13:53.752Z,59.50
2017-08-25T09:16:21.602Z,59.50
2017-08-25T09:18:49.349Z,59.20
2017-08-25T09:21:16.982Z,60.00
2017-08-25T09:23:44.664Z,57.10
2017-08-25T09:26:12.386Z,56.80
2017-08-25T09:28:40.014Z,56.70
2017-08-25T09:31:07.780Z,56.60
2017-08-25T09:33:35.529Z,57.30
2017-08-25T09:36:03.281Z,57.30
2017-08-25T09:38:30.974Z,57.90
2017-08-25T09:40:58.666Z,55.50
2017-08-25T09:43:26.414Z,56.60
2017-08-25T09:45:54.161Z,56.20
2017-08-25T09:48:21.805Z,56.40
2017-08-25T09:50:49.449Z,56.00
2017-08-25T09:53:17.197Z,55.70
2017-08-25T09:55:44.944Z,55.30
2017-08-25T09:58:12.692Z,56.20
2017-08-25T10:00:40.439Z,56.80
2017-08-25T10:03:08.086Z,57.10
2017-08-25T10:05:35.736Z,54.80
2017-08-25T10:08:03.479Z,55.30
2017-08-25T10:10:31.226Z,54.90
2017-08-25T10:12:58.870Z,55.00
2017-08-25T10:15:26.617Z,54.80
2017-08-25T10:17:54.262Z,55.80
2017-08-25T10:20:22.009Z,56.10
2017-08-25T10:22:49.859Z,55.50
2017-08-25T10:25:17.607Z,54.50
2017-08-25T10:27:45.353Z,54.90
2017-08-25T10:30:13.202Z,56.20
2017-08-25T10:32:40.867Z,58.00
2017-08-25T10:35:20.474Z,55.20
2017-08-25T10:38:00.201Z,53.50
2017-08-25T10:40:39.723Z,54.00
2017-08-25T10:43:19.449Z,54.10
2017-08-25T10:45:47.298Z,55.00
2017-08-25T10:48:14.945Z,56.90
2017-08-25T10:50:42.587Z,55.90
2017-08-25T10:53:10.334Z,56.50
2017-08-25T10:55:37.983Z,55.40
2017-08-25T10:58:05.628Z,56.80
2017-08-25T11:00:33.476Z,54.00
2017-08-25T11:03:01.121Z,53.50
2017-08-25T11:05:28.765Z,52.10
2017-08-25T11:07:56.453Z,53.80
2017-08-25T11:10:24.157Z,53.20
2017-08-25T11:12:51.905Z,53.10
2017-08-25T11:15:19.652Z,51.60
2017-08-25T11:17:47.399Z,50.30
2017-08-25T11:20:15.043Z,52.10
2017-08-25T11:22:42.791Z,52.30
2017-08-25T11:25:10.436Z,50.30
2017-08-25T11:27:38.083Z,50.90
2017-08-25T11:30:05.777Z,50.90
2017-08-25T11:32:33.413Z,51.80
2017-08-25T11:35:01.120Z,50.90
2017-08-25T11:37:28.866Z,50.20
2017-08-25T11:39:56.615Z,49.90
2017-08-25T11:42:24.258Z,51.30
2017-08-25T11:44:51.938Z,52.40
2017-08-25T11:47:19.753Z,50.70
2017-08-25T11:49:47.399Z,50.40
2017-08-25T11:52:15.089Z,52.30
2017-08-25T11:54:42.715Z,49.60
2017-08-25T11:57:10.434Z,50.80
2017-08-25T11:59:38.125Z,51.40
2017-08-25T12:02:05.830Z,50.50
2017-08-25T12:04:33.475Z,48.90
2017-08-25T12:07:01.154Z,49.30
2017-08-25T12:09:28.866Z,50.10
2017-08-25T12:11:56.613Z,50.60
2017-08-25T12:14:24.461Z,48.90
2017-08-25T12:16:52.211Z,49.40
2017-08-25T12:19:19.855Z,49.80
2017-08-25T12:21:47.602Z,49.90
2017-08-25T12:24:15.230Z,50.00
2017-08-25T12:26:42.859Z,48.40
2017-08-25T12:29:10.545Z,48.80
2017-08-25T12:31:38.183Z,49.70
2017-08-25T12:34:05.828Z,49.60
2017-08-25T12:36:33.576Z,48.50
2017-08-25T12:39:01.221Z,48.60
2017-08-25T12:41:28.967Z,47.70
2017-08-25T12:43:56.715Z,47.30
2017-08-25T12:46:24.350Z,48.90
2017-08-25T12:48:52.003Z,48.00
2017-08-25T12:51:19.689Z,46.80
2017-08-25T12:53:47.322Z,46.80
2017-08-25T12:56:14.954Z,47.60
2017-08-25T12:58:42.684Z,47.70
2017-08-25T13:01:10.432Z,48.50
2017-08-25T13:03:38.079Z,48.10
2017-08-25T13:06:05.930Z,47.50
2017-08-25T13:08:33.573Z,46.80
2017-08-25T13:11:01.218Z,45.90
2017-08-25T13:13:29.138Z,45.60
2017-08-25T13:15:56.816Z,46.00
2017-08-25T13:18:24.564Z,46.90
2017-08-25T13:20:52.353Z,47.20
2017-08-25T13:23:20.056Z,47.30
2017-08-25T13:25:47.686Z,46.90
2017-08-25T13:28:15.448Z,46.10
2017-08-25T13:30:43.093Z,51.10
2017-08-25T13:33:10.722Z,50.30
2017-08-25T13:35:38.590Z,51.70
2017-08-25T13:38:06.235Z,49.80
2017-08-25T13:40:33.883Z,50.10
2017-08-25T13:43:01.586Z,50.60
2017-08-25T13:45:29.374Z,49.40
2017-08-25T13:47:57.018Z,49.90
2017-08-25T13:50:24.798Z,49.60
2017-08-25T13:52:52.515Z,49.10
2017-08-25T13:55:20.159Z,48.50
2017-08-25T13:57:47.845Z,48.60
2017-08-25T14:00:15.518Z,48.60
2017-08-25T14:02:43.195Z,50.30
2017-08-25T14:05:10.886Z,49.40
2017-08-25T14:07:38.592Z,50.20
2017-08-25T14:10:06.338Z,49.00
2017-08-25T14:12:34.084Z,49.80
2017-08-25T14:15:01.727Z,49.80
2017-08-25T14:17:29.375Z,48.40
2017-08-25T14:19:57.082Z,48.70
2017-08-25T14:22:24.764Z,50.30
2017-08-25T14:24:52.426Z,50.10
2017-08-25T14:27:20.202Z,50.10
2017-08-25T14:29:47.829Z,49.80
2017-08-25T14:32:15.549Z,50.80
2017-08-25T14:34:43.300Z,50.50
2017-08-25T14:37:11.043Z,49.60
2017-08-25T14:39:38.690Z,50.20
2017-08-25T14:42:06.370Z,49.00
2017-08-25T14:44:33.993Z,48.90
2017-08-25T14:47:01.727Z,48.70
2017-08-25T14:49:29.474Z,47.20
2017-08-25T14:51:57.221Z,48.80
2017-08-25T14:54:24.864Z,49.60
2017-08-25T14:56:52.613Z,49.60
2017-08-25T14:59:20.360Z,48.80
2017-08-25T15:01:47.989Z,49.60
2017-08-25T15:04:15.678Z,49.00
2017-08-25T15:06:43.399Z,49.20
2017-08-25T15:09:11.041Z,49.90
2017-08-25T15:11:38.791Z,50.00
2017-08-25T15:14:06.435Z,50.80
2017-08-25T15:16:34.066Z,49.90
2017-08-25T15:19:01.931Z,50.50
2017-08-25T15:21:29.574Z,51.40
2017-08-25T15:23:57.220Z,52.30
2017-08-25T15:26:24.906Z,51.40
2017-08-25T15:28:52.541Z,50.90
2017-08-25T15:31:20.181Z,51.40
2017-08-25T15:33:47.902Z,52.00
2017-08-25T15:36:15.547Z,51.70
2017-08-25T15:38:43.192Z,51.90
2017-08-25T15:41:10.938Z,51.50
2017-08-25T15:43:38.575Z,52.40
2017-08-25T15:46:06.230Z,51.00
2017-08-25T15:48:34.083Z,52.50
2017-08-25T15:51:01.728Z,52.60
2017-08-25T15:53:29.472Z,52.90
2017-08-25T15:55:57.294Z,53.60
2017-08-25T15:58:24.966Z,52.70
2017-08-25T16:00:52.598Z,52.70
2017-08-25T16:03:20.460Z,53.60
2017-08-25T16:05:48.209Z,53.10
2017-08-25T16:08:15.852Z,54.20
2017-08-25T16:10:43.536Z,55.00
2017-08-25T16:13:11.167Z,55.60
2017-08-25T16:15:38.790Z,55.50
2017-08-25T16:18:06.490Z,56.30
2017-08-25T16:20:34.182Z,56.80
2017-08-25T16:23:01.825Z,57.30
2017-08-25T16:25:29.676Z,57.40
2017-08-25T16:27:57.320Z,57.00
2017-08-25T16:30:25.069Z,57.60
2017-08-25T16:32:52.917Z,57.50
2017-08-25T16:35:20.541Z,57.30
2017-08-25T16:37:48.207Z,57.90
2017-08-25T16:40:15.957Z,58.00
2017-08-25T16:42:43.702Z,58.40
2017-08-25T16:45:11.345Z,58.40
2017-08-25T16:47:39.042Z,59.00
2017-08-25T16:50:06.666Z,59.60
2017-08-25T16:52:34.387Z,60.50
2017-08-25T16:55:02.091Z,60.40
2017-08-25T16:57:29.729Z,60.50
2017-08-25T16:59:57.422Z,60.20
2017-08-25T17:02:25.128Z,60.50
2017-08-25T17:04:52.917Z,60.80
2017-08-25T17:07:20.550Z,61.30
2017-08-25T17:09:48.308Z,61.50
2017-08-25T17:12:15.952Z,62.60
2017-08-25T17:14:43.701Z,63.00
2017-08-25T17:17:11.549Z,64.10
2017-08-25T17:19:39.243Z,64.40
2017-08-25T17:22:06.945Z,65.00
2017-08-25T17:24:34.629Z,65.30
2017-08-25T17:27:02.336Z,65.00
2017-08-25T17:29:29.983Z,65.40
2017-08-25T17:31:57.728Z,65.60
2017-08-25T17:34:25.371Z,65.70
2017-08-25T17:36:53.017Z,66.30
2017-08-25T17:39:20.765Z,66.20
2017-08-25T17:41:48.409Z,66.20
2017-08-25T17:44:16.065Z,66.80
2017-08-25T17:46:43.757Z,66.80
2017-08-25T17:49:11.446Z,67.20
2017-08-25T17:51:39.093Z,67.50
2017-08-25T17:54:06.841Z,67.90
2017-08-25T17:56:34.590Z,68.40
2017-08-25T17:59:02.336Z,68.60
2017-08-25T18:01:30.084Z,68.60
2017-08-25T18:03:57.723Z,68.80
2017-08-25T18:06:25.372Z,69.40
2017-08-25T18:08:53.063Z,69.40
2017-08-25T18:11:20.694Z,70.10
2017-08-25T18:13:48.408Z,69.90
2017-08-25T18:16:16.090Z,70.50
2017-08-25T18:18:43.801Z,70.10
2017-08-25T18:21:11.451Z,70.50
2017-08-25T18:23:39.298Z,70.40
2017-08-25T18:26:06.922Z,70.60
2017-08-25T18:28:34.545Z,70.60
2017-08-25T18:31:02.335Z,71.30
2017-08-25T18:33:29.978Z,72.10
2017-08-25T18:35:57.624Z,72.50
2017-08-25T18:38:25.301Z,72.90
2017-08-25T18:40:53.015Z,72.70
2017-08-25T18:43:20.645Z,72.60
2017-08-25T18:45:48.321Z,72.40
2017-08-25T18:48:15.958Z,72.50
2017-08-25T18:50:43.697Z,72.60
2017-08-25T18:53:11.443Z,72.60
2017-08-25T18:55:39.195Z,72.60
2017-08-25T18:58:06.838Z,73.30
2017-08-25T19:00:34.587Z,73.70
2017-08-25T19:03:02.215Z,74.00
2017-08-25T19:05:29.854Z,74.50
2017-08-25T19:07:57.706Z,74.60
2017-08-25T19:10:25.369Z,74.70
2017-08-25T19:12:53.014Z,74.50
2017-08-25T19:15:20.945Z,74.30
2017-08-25T19:17:48.611Z,74.50
2017-08-25T19:20:16.358Z,74.60
2017-08-25T19:22:44.105Z,74.40
2017-08-25T19:25:11.750Z,74.60
2017-08-25T19:27:39.403Z,74.50
2017-08-25T19:30:07.202Z,74.60
2017-08-25T19:32:34.834Z,74.60
2017-08-25T19:35:02.538Z,74.50
2017-08-25T19:37:30.278Z,74.80
2017-08-25T19:39:57.928Z,74.80
2017-08-25T19:42:25.574Z,75.10
2017-08-25T19:44:53.320Z,75.20
2017-08-25T19:47:20.950Z,75.60
2017-08-25T19:49:48.581Z,75.30
2017-08-25T19:52:16.357Z,75.10
2017-08-25T19:54:44.002Z,75.40
2017-08-25T19:57:11.659Z,75.30
2017-08-25T19:59:39.469Z,75.30
2017-08-25T20:02:07.100Z,75.10
2017-08-25T20:04:34.790Z,74.90
2017-08-25T20:07:02.562Z,75.00
2017-08-25T20:09:30.285Z,74.90
2017-08-25T20:11:57.927Z,75.20
2017-08-25T20:14:25.635Z,75.50
2017-08-25T20:16:53.320Z,75.20
2017-08-25T20:19:21.067Z,75.10
2017-08-25T20:21:48.817Z,75.40
2017-08-25T20:24:16.562Z,75.30
2017-08-25T20:26:44.308Z,75.40
2017-08-25T20:29:12.055Z,75.60
2017-08-25T20:31:39.698Z,75.60
2017-08-25T20:34:07.347Z,75.30
2017-08-25T20:36:35.059Z,74.90
2017-08-25T20:39:02.784Z,74.70
2017-08-25T20:41:30.430Z,74.30
2017-08-25T20:43:58.235Z,74.10
2017-08-25T20:46:25.882Z,74.00
2017-08-25T20:48:53.626Z,73.50
2017-08-25T20:51:21.318Z,73.20
2017-08-25T20:53:48.962Z,73.00
2017-08-25T20:56:16.606Z,72.70
2017-08-25T20:58:44.415Z,72.40
2017-08-25T21:01:12.058Z,72.50
2017-08-25T21:03:39.697Z,72.50
2017-08-25T21:06:07.380Z,72.40
2017-08-25T21:08:35.026Z,72.50
2017-08-25T21:11:02.738Z,72.60
2017-08-25T21:13:30.487Z,72.80
2017-08-25T21:15:58.232Z,72.90
2017-08-25T21:18:25.876Z,73.30
2017-08-25T21:20:53.624Z,73.50
2017-08-25T21:23:21.268Z,73.60
2017-08-25T21:25:49.016Z,73.70
2017-08-25T21:28:16.766Z,73.90
2017-08-25T21:30:44.407Z,74.70
2017-08-25T21:33:12.057Z,75.10
2017-08-25T21:35:39.837Z,75.20
2017-08-25T21:38:07.550Z,75.00
2017-08-25T21:40:35.297Z,75.10
2017-08-25T21:43:03.437Z,75.00
2017-08-25T21:45:31.074Z,74.60
2017-08-25T21:47:58.761Z,74.60
2017-08-25T21:50:26.450Z,74.60
2017-08-25T21:52:54.135Z,74.30
2017-08-25T21:55:21.779Z,74.20
2017-08-25T21:57:49.942Z,74.30
2017-08-25T22:00:17.646Z,74.30
2017-08-25T22:02:45.329Z,74.70
2017-08-25T22:05:13.027Z,75.20
2017-08-25T22:07:40.662Z,75.40
2017-08-25T22:10:08.330Z,75.50
2017-08-25T22:12:36.034Z,75.60
2017-08-25T22:15:03.863Z,75.90
2017-08-25T22:17:31.590Z,76.20
2017-08-25T22:19:59.266Z,76.50
2017-08-25T22:22:26.902Z,76.80
2017-08-25T22:24:54.539Z,76.80
2017-08-25T22:27:22.291Z,76.80
2017-08-25T22:29:49.935Z,77.20
2017-08-25T22:32:17.682Z,77.30
2017-08-25T22:34:45.366Z,77.40
2017-08-25T22:37:13.074Z,78.00
2017-08-25T22:39:41.026Z,78.80
2017-08-25T22:42:08.822Z,79.10
2017-08-25T22:44:36.445Z,79.10
2017-08-25T22:47:04.087Z,79.30
2017-08-25T22:49:31.795Z,79.30
2017-08-25T22:51:59.426Z,79.10
2017-08-25T22:54:27.086Z,79.00
2017-08-25T22:56:54.849Z,78.90
2017-08-25T22:59:22.526Z,79.00
2017-08-25T23:01:50.241Z,79.00
2017-08-25T23:04:18.862Z,79.10
2017-08-25T23:06:46.551Z,78.90
2017-08-25T23:09:14.302Z,78.40
2017-08-25T23:11:42.050Z,77.90
2017-08-25T23:14:09.795Z,78.00
2017-08-25T23:16:37.424Z,78.10
2017-08-25T23:19:05.191Z,78.40
2017-08-25T23:21:32.939Z,78.70
2017-08-25T23:24:00.685Z,78.80
2017-08-25T23:26:28.433Z,79.00
2017-08-25T23:28:56.079Z,79.30
2017-08-25T23:31:23.825Z,79.30
2017-08-25T23:33:51.571Z,79.60
2017-08-25T23:36:19.202Z,79.70
2017-08-25T23:38:46.861Z,79.70
2017-08-25T23:41:14.537Z,79.70
2017-08-25T23:43:42.252Z,79.70
2017-08-25T23:46:09.882Z,80.30
2017-08-25T23:48:37.566Z,80.40
2017-08-25T23:51:05.292Z,80.10
2017-08-25T23:53:33.040Z,80.00
2017-08-25T23:56:00.787Z,79.90
2017-08-25T23:58:28.430Z,79.90
